Time;durP1;ratioP1;P1;durP2;ratioP2;P2;SDS_P1;SDS_P2;PMS_P1;PMS_P2;Temp;Humidity;BMP_temperature;BMP_pressure;BME280_temperature;BME280_humidity;BME280_pressure;Samples;Min_cycle;Max_cycle;Signal;HPM_P1;HPM_P2
2022/04/21 04:01:35;;;;;;;12.90;11.60;;;7.90;99.90;;;;;;5421590;23;20482;-67
2022/04/21 04:04:02;;;;;;;12.90;11.80;;;7.90;99.90;;;;;;4977190;28;20892;-67
2022/04/21 04:11:57;;;;;;;14.83;13.53;;;7.90;99.90;;;;;;4977712;28;20458;-71
2022/04/21 04:14:24;;;;;;;14.53;13.23;;;7.90;99.90;;;;;;4977519;28;20451;-67
2022/04/21 04:16:52;;;;;;;14.60;13.20;;;7.80;99.90;;;;;;4978609;28;20462;-66
2022/04/21 04:19:19;;;;;;;14.57;13.27;;;7.80;99.90;;;;;;4978102;28;20871;-68
2022/04/21 04:21:46;;;;;;;15.03;13.83;;;7.80;99.90;;;;;;4977628;28;20482;-68
2022/04/21 04:24:12;;;;;;;15.10;13.70;;;7.80;99.90;;;;;;4977565;28;21001;-67
2022/04/21 04:26:39;;;;;;;15.00;13.70;;;7.80;99.90;;;;;;4977881;28;20506;-68
2022/04/21 04:29:06;;;;;;;14.93;13.43;;;7.80;99.90;;;;;;4977770;28;20458;-68
2022/04/21 04:31:33;;;;;;;13.73;12.53;;;7.80;99.90;;;;;;4977080;28;21005;-67
2022/04/21 04:34:01;;;;;;;15.93;13.87;;;7.80;99.90;;;;;;4977054;28;20455;-67
2022/04/21 04:36:28;;;;;;;14.33;13.23;;;7.80;99.90;;;;;;4977833;28;20466;-67
2022/04/21 04:38:55;;;;;;;16.80;15.20;;;7.80;99.90;;;;;;4976989;28;20826;-67
2022/04/21 04:44:06;;;;;;;14.27;13.07;;;7.80;99.90;;;;;;4977240;28;20454;-67
2022/04/21 04:46:35;;;;;;;15.80;14.50;;;7.70;99.90;;;;;;4976811;28;20946;-67
2022/04/21 04:49:04;;;;;;;14.40;13.20;;;7.80;99.90;;;;;;4982792;28;20459;-67
2022/04/21 04:51:31;;;;;;;16.07;14.67;;;7.80;99.90;;;;;;4985176;28;20574;-67
2022/04/21 04:53:57;;;;;;;15.97;14.60;;;7.90;99.90;;;;;;4978887;28;20885;-67
2022/04/21 04:56:26;;;;;;;16.10;14.60;;;7.90;99.90;;;;;;4976771;28;20463;-66
2022/04/21 04:58:53;;;;;;;16.03;14.30;;;7.90;99.90;;;;;;4976958;28;20455;-68
2022/04/21 05:01:27;;;;;;;16.70;15.10;;;7.90;99.90;;;;;;4976255;28;20997;-67
2022/04/21 05:04:00;;;;;;;16.73;15.23;;;7.90;99.90;;;;;;4976627;28;20470;-67
2022/04/21 05:06:28;;;;;;;15.60;14.20;;;7.90;99.90;;;;;;4976680;28;20443;-66
2022/04/21 05:08:57;;;;;;;17.30;15.80;;;7.90;99.90;;;;;;4976792;28;20487;-67
2022/04/21 05:11:23;;;;;;;16.80;15.20;;;7.90;99.90;;;;;;4976268;28;20506;-68
2022/04/21 05:13:50;;;;;;;16.93;15.43;;;8.00;99.90;;;;;;4976442;28;20442;-66
2022/04/21 05:16:17;;;;;;;16.43;15.03;;;7.90;99.90;;;;;;4976287;28;20454;-66
2022/04/21 05:18:44;;;;;;;17.60;16.00;;;7.90;99.90;;;;;;4976323;28;20823;-67
2022/04/21 05:21:11;;;;;;;16.80;15.43;;;7.90;99.90;;;;;;4976618;28;20475;-68
2022/04/21 05:23:41;;;;;;;16.97;15.37;;;8.00;99.90;;;;;;4976444;28;20836;-67
2022/04/21 05:26:08;;;;;;;16.43;15.03;;;8.00;99.90;;;;;;4976615;28;20509;-67
2022/04/21 05:28:36;;;;;;;17.53;15.87;;;8.00;99.90;;;;;;4976911;28;20455;-68
2022/04/21 05:31:02;;;;;;;16.30;14.80;;;8.00;99.90;;;;;;4976774;28;20475;-67
2022/04/21 05:33:31;;;;;;;16.07;14.67;;;8.10;99.90;;;;;;4976711;28;20455;-67
2022/04/21 05:36:00;;;;;;;15.90;14.50;;;8.20;99.90;;;;;;4976423;28;20965;-67
2022/04/21 05:38:28;;;;;;;14.43;13.07;;;8.50;99.90;;;;;;4976559;28;20502;-70
2022/04/21 05:40:57;;;;;;;15.70;14.30;;;8.70;99.90;;;;;;4976490;28;20503;-67
2022/04/21 05:43:30;;;;;;;13.80;12.43;;;9.00;99.90;;;;;;4976266;28;20483;-67
2022/04/21 05:45:58;;;;;;;13.00;11.77;;;9.40;99.90;;;;;;4975918;28;20535;-67
2022/04/21 05:48:25;;;;;;;14.37;13.17;;;9.70;99.90;;;;;;4976431;28;20454;-68
2022/04/21 05:50:53;;;;;;;14.50;13.10;;;10.10;99.90;;;;;;4976140;28;20486;-68
2022/04/21 05:53:22;;;;;;;14.57;13.27;;;10.30;99.90;;;;;;4976245;28;20450;-67
2022/04/21 05:55:50;;;;;;;18.70;14.30;;;10.60;99.90;;;;;;4976350;28;20531;-68
2022/04/21 05:58:18;;;;;;;14.10;12.90;;;10.90;99.90;;;;;;4976181;28;20462;-68
2022/04/21 06:00:45;;;;;;;14.20;12.80;;;11.10;99.90;;;;;;4975630;28;20987;-68
2022/04/21 06:03:12;;;;;;;14.60;13.20;;;11.40;99.90;;;;;;4976029;28;20479;-68
2022/04/21 06:05:39;;;;;;;15.07;13.77;;;11.70;99.90;;;;;;4978766;28;20466;-68
2022/04/21 06:08:07;;;;;;;15.57;14.27;;;12.00;99.90;;;;;;4988586;28;20462;-68
2022/04/21 06:10:33;;;;;;;14.70;13.43;;;12.20;99.90;;;;;;4975795;28;20990;-67
2022/04/21 06:13:01;;;;;;;16.60;13.70;;;12.60;99.90;;;;;;4975557;28;20459;-67
2022/04/21 06:15:29;;;;;;;14.10;13.00;;;12.70;99.90;;;;;;4976101;28;20506;-68
2022/04/21 06:17:56;;;;;;;16.20;13.10;;;12.90;99.90;;;;;;4975735;28;20462;-68
2022/04/21 06:20:23;;;;;;;13.83;12.57;;;13.10;99.90;;;;;;4975696;28;20466;-68
2022/04/21 06:22:49;;;;;;;13.27;12.13;;;13.40;99.90;;;;;;4975740;28;20461;-68
2022/04/21 06:25:16;;;;;;;13.53;12.40;;;13.70;98.90;;;;;;4975621;28;20455;-70
2022/04/21 06:27:43;;;;;;;15.90;12.73;;;13.90;97.50;;;;;;4975845;28;20455;-68
2022/04/21 06:30:10;;;;;;;14.10;13.10;;;13.80;97.40;;;;;;4975781;28;20464;-69
2022/04/21 06:32:38;;;;;;;13.40;12.30;;;13.80;96.60;;;;;;4975754;28;20462;-68
2022/04/21 06:35:06;;;;;;;14.20;12.90;;;13.90;96.80;;;;;;4975311;28;20465;-69
2022/04/21 06:37:32;;;;;;;14.00;12.90;;;14.30;96.00;;;;;;4975250;28;20455;-70
2022/04/21 06:39:59;;;;;;;14.53;13.43;;;14.30;95.90;;;;;;4976463;28;20462;-68
2022/04/21 06:42:26;;;;;;;15.13;13.93;;;14.70;94.20;;;;;;4975682;28;20471;-68
2022/04/21 06:50:22;;;;;;;15.73;14.33;;;15.60;93.10;;;;;;4975392;28;20996;-68
2022/04/21 06:52:48;;;;;;;14.63;13.43;;;15.70;91.80;;;;;;4975798;28;20447;-67
2022/04/21 06:55:15;;;;;;;15.13;14.03;;;15.90;91.50;;;;;;4975408;28;20454;-68
2022/04/21 06:57:42;;;;;;;15.33;14.10;;;16.40;90.10;;;;;;4979078;28;20458;-68
2022/04/21 07:00:09;;;;;;;14.97;13.43;;;16.70;88.00;;;;;;4979416;28;20454;-68
2022/04/21 07:02:38;;;;;;;16.00;14.73;;;17.20;87.00;;;;;;4978917;28;20447;-68
2022/04/21 07:05:06;;;;;;;13.53;12.53;;;17.20;84.70;;;;;;4979319;28;20561;-68
2022/04/21 07:07:33;;;;;;;14.77;13.67;;;17.30;84.30;;;;;;4978960;28;20458;-68
2022/04/21 07:10:00;;;;;;;16.23;14.60;;;17.40;82.20;;;;;;4978576;28;20824;-68
2022/04/21 07:12:27;;;;;;;15.30;14.17;;;17.30;83.10;;;;;;4978579;28;20525;-68
2022/04/21 07:14:54;;;;;;;15.37;14.17;;;17.60;81.70;;;;;;4978649;28;20483;-68
2022/04/21 07:17:21;;;;;;;15.30;14.10;;;17.90;80.50;;;;;;4978829;28;20461;-67
2022/04/21 07:19:49;;;;;;;14.63;13.63;;;18.20;80.50;;;;;;4978763;28;20462;-68
2022/04/21 07:22:16;;;;;;;14.00;13.00;;;18.30;78.40;;;;;;4979204;28;20506;-68
2022/04/21 07:24:43;;;;;;;15.20;14.10;;;18.30;76.50;;;;;;4980972;28;20485;-70
2022/04/21 07:27:10;;;;;;;15.10;13.90;;;18.70;76.80;;;;;;4980811;28;20825;-69
2022/04/21 07:29:37;;;;;;;14.00;13.00;;;19.00;76.30;;;;;;4981243;28;20494;-69
2022/04/21 07:32:05;;;;;;;25.97;17.20;;;19.10;77.50;;;;;;4981182;28;20475;-71
2022/04/21 07:34:32;;;;;;;15.73;14.20;;;19.40;74.60;;;;;;4978955;28;20954;-68
2022/04/21 07:37:00;;;;;;;20.50;14.77;;;19.90;71.90;;;;;;4978530;28;20465;-68
2022/04/21 07:39:26;;;;;;;14.27;13.07;;;20.40;71.40;;;;;;4979537;28;20470;-71
2022/04/21 07:41:53;;;;;;;14.27;13.17;;;20.60;69.10;;;;;;4979809;28;20931;-68
2022/04/21 07:44:20;;;;;;;13.97;12.97;;;20.50;69.20;;;;;;4979432;28;20818;-68
2022/04/21 07:46:47;;;;;;;15.07;13.80;;;19.90;67.80;;;;;;4979230;28;20485;-68
2022/04/21 07:54:40;;;;;;;13.93;12.63;;;20.60;70.20;;;;;;4977843;28;20514;-68
2022/04/21 07:57:07;;;;;;;13.70;12.40;;;21.20;65.90;;;;;;4978135;28;20486;-69
2022/04/21 07:59:35;;;;;;;14.83;13.73;;;21.30;66.50;;;;;;4977860;28;20953;-68
2022/04/21 08:02:03;;;;;;;15.10;13.60;;;21.40;65.40;;;;;;4977600;28;20482;-68
2022/04/21 08:04:30;;;;;;;13.53;12.43;;;21.80;63.30;;;;;;4977722;28;20830;-68
2022/04/21 08:06:58;;;;;;;14.47;13.43;;;21.90;63.70;;;;;;4977270;28;20934;-68
2022/04/21 08:09:26;;;;;;;13.63;12.33;;;22.10;63.10;;;;;;4977318;28;20820;-68
2022/04/21 08:11:52;;;;;;;14.00;13.03;;;22.70;62.70;;;;;;4978006;28;20482;-68
2022/04/21 08:14:19;;;;;;;13.73;12.33;;;23.00;63.10;;;;;;4977620;28;20458;-69
2022/04/21 08:16:46;;;;;;;15.03;13.83;;;23.20;59.20;;;;;;4977722;28;20454;-68
2022/04/21 08:19:12;;;;;;;15.47;14.17;;;23.20;59.80;;;;;;4977433;28;20800;-68
2022/04/21 08:21:39;;;;;;;12.87;11.63;;;23.40;59.30;;;;;;4977714;28;20474;-67
2022/04/21 08:32:37;;;;;;;12.07;11.27;;;23.50;55.30;;;;;;4918433;29;20504;-68
2022/04/21 08:35:04;;;;;;;12.37;11.17;;;23.70;56.20;;;;;;4953564;28;20454;-68
2022/04/21 08:37:33;;;;;;;10.40;9.60;;;23.60;56.30;;;;;;4977284;28;20922;-68
2022/04/21 08:40:00;;;;;;;11.67;10.47;;;23.90;57.10;;;;;;4977659;28;20454;-68
2022/04/21 08:42:31;;;;;;;10.53;9.73;;;24.00;54.70;;;;;;4977912;28;20478;-68
2022/04/21 08:44:58;;;;;;;10.13;9.43;;;23.80;54.50;;;;;;4977603;28;20470;-67
2022/04/21 08:47:27;;;;;;;9.80;9.00;;;23.60;54.50;;;;;;4977513;28;20549;-68
2022/04/21 08:49:59;;;;;;;10.63;9.93;;;24.10;54.30;;;;;;4977807;28;20513;-67
2022/04/21 08:52:26;;;;;;;10.07;9.37;;;24.10;53.00;;;;;;4976862;28;20965;-67
2022/04/21 08:54:55;;;;;;;10.50;9.60;;;24.20;53.00;;;;;;4992497;28;20945;-67
2022/04/21 08:57:22;;;;;;;10.70;9.90;;;24.80;52.80;;;;;;4981601;28;20450;-67
2022/04/21 08:59:50;;;;;;;11.20;10.30;;;25.00;50.80;;;;;;4977405;28;20477;-67
2022/04/21 09:02:17;;;;;;;11.07;10.07;;;24.80;53.30;;;;;;4976512;28;20482;-68
2022/04/21 09:04:43;;;;;;;9.90;8.90;;;25.10;51.90;;;;;;4976875;28;20482;-67
2022/04/21 09:07:19;;;;;;;9.20;8.60;;;24.90;51.10;;;;;;4977150;28;20846;-67
2022/04/21 09:10:01;;;;;;;10.57;9.53;;;25.20;51.20;;;;;;4977512;28;20461;-69
2022/04/21 09:12:28;;;;;;;9.10;8.40;;;24.90;51.30;;;;;;4978107;28;20502;-67
2022/04/21 09:14:57;;;;;;;9.20;8.53;;;24.70;52.30;;;;;;4977540;28;20457;-67
2022/04/21 09:17:24;;;;;;;8.20;7.70;;;24.90;51.50;;;;;;4977211;28;20633;-68
2022/04/21 09:19:58;;;;;;;9.20;8.50;;;25.10;51.30;;;;;;4976172;28;20819;-67
2022/04/21 09:22:25;;;;;;;8.93;8.23;;;25.20;48.90;;;;;;4977316;28;20482;-68
2022/04/21 09:24:53;;;;;;;9.07;8.47;;;25.20;49.30;;;;;;4977400;28;20481;-67
2022/04/21 09:27:20;;;;;;;6.87;6.47;;;25.20;49.50;;;;;;4976872;28;20851;-68
2022/04/21 09:29:46;;;;;;;8.00;7.50;;;25.50;49.00;;;;;;4977539;28;20907;-68
2022/04/21 09:32:18;;;;;;;7.97;7.17;;;25.60;49.80;;;;;;4978162;28;20483;-68
2022/04/21 09:34:50;;;;;;;7.40;6.90;;;25.50;49.80;;;;;;4978289;28;20497;-68
2022/04/21 09:37:20;;;;;;;7.90;7.40;;;26.10;49.20;;;;;;4977876;28;20489;-68
2022/04/21 09:39:50;;;;;;;8.13;7.63;;;26.20;50.60;;;;;;4977686;28;20456;-68
2022/04/21 09:42:24;;;;;;;7.73;7.03;;;26.10;49.70;;;;;;4977125;28;20537;-68
2022/04/21 09:47:36;;;;;;;6.90;6.50;;;26.00;48.50;;;;;;4977007;28;20417;-70
2022/04/21 09:50:12;;;;;;;7.13;6.63;;;26.30;47.80;;;;;;4976447;28;20465;-68
2022/04/21 09:52:39;;;;;;;7.07;6.67;;;26.50;49.50;;;;;;4977334;28;20505;-68
2022/04/21 09:55:21;;;;;;;7.10;6.70;;;26.80;48.20;;;;;;4977441;28;20455;-67
2022/04/21 09:57:50;;;;;;;7.17;6.77;;;27.00;49.20;;;;;;4976921;28;20442;-67
2022/04/21 10:00:20;;;;;;;7.10;6.40;;;27.10;48.60;;;;;;4976349;28;20487;-68
2022/04/21 10:02:49;;;;;;;6.40;5.90;;;26.50;48.40;;;;;;4976602;28;20439;-68
2022/04/21 10:05:18;;;;;;;7.27;6.87;;;26.80;49.00;;;;;;4976318;28;20474;-67
2022/04/21 10:07:45;;;;;;;6.43;6.03;;;27.50;46.70;;;;;;4976316;28;20493;-68
2022/04/21 10:10:12;;;;;;;6.03;5.73;;;27.60;46.90;;;;;;4975915;28;20585;-68
2022/04/21 10:12:40;;;;;;;5.50;5.20;;;27.00;47.00;;;;;;4975965;28;20454;-68
2022/04/21 10:15:09;;;;;;;6.17;5.40;;;26.90;46.30;;;;;;4976929;28;20459;-68
2022/04/21 10:17:36;;;;;;;6.20;5.80;;;26.70;47.90;;;;;;4975788;28;20455;-68
2022/04/21 10:20:08;;;;;;;7.47;5.80;;;26.50;48.10;;;;;;4975555;28;20462;-68
2022/04/21 10:22:35;;;;;;;5.83;5.43;;;26.10;49.70;;;;;;4975938;28;20474;-67
2022/04/21 10:25:03;;;;;;;5.93;5.57;;;26.30;48.40;;;;;;4976084;28;20483;-69
2022/04/21 10:27:37;;;;;;;5.17;4.87;;;26.40;48.40;;;;;;4976242;28;20462;-70
2022/04/21 10:30:12;;;;;;;5.90;5.40;;;26.70;50.00;;;;;;4976308;28;20459;-67
2022/04/21 10:32:52;;;;;;;5.87;5.20;;;27.00;46.70;;;;;;4976431;28;20808;-68
2022/04/21 10:35:41;;;;;;;5.63;5.30;;;27.10;46.30;;;;;;4974969;28;20876;-68
2022/04/21 10:38:25;;;;;;;5.30;5.00;;;26.80;47.10;;;;;;4975372;28;20439;-68
2022/04/21 10:41:02;;;;;;;4.83;4.53;;;26.40;46.90;;;;;;4975535;28;20478;-68
2022/04/21 10:44:01;;;;;;;4.77;4.47;;;25.70;47.40;;;;;;4975241;28;20438;-68
2022/04/21 10:46:29;;;;;;;4.60;4.40;;;25.10;49.40;;;;;;4976078;28;20454;-67
2022/04/21 10:48:58;;;;;;;4.60;4.20;;;24.30;50.20;;;;;;4975123;28;20490;-68
2022/04/21 10:58:00;;;;;;;4.77;4.30;;;25.50;50.90;;;;;;4953617;28;20478;-68
2022/04/21 11:00:28;;;;;;;3.93;3.73;;;25.50;48.80;;;;;;4975672;28;20450;-68
2022/04/21 11:03:03;;;;;;;3.70;3.50;;;25.40;49.20;;;;;;4975274;28;20447;-67
2022/04/21 11:05:31;;;;;;;4.20;4.00;;;25.50;48.70;;;;;;4974926;28;21030;-67
2022/04/21 11:07:59;;;;;;;3.30;3.10;;;25.60;49.20;;;;;;4975747;28;20461;-67
2022/04/21 11:10:28;;;;;;;3.87;3.60;;;25.70;50.90;;;;;;4975699;28;20885;-67
2022/04/21 11:12:56;;;;;;;3.37;3.27;;;25.70;48.20;;;;;;4976012;28;20450;-67
2022/04/21 11:15:33;;;;;;;3.00;2.90;;;25.70;49.30;;;;;;4975724;28;20455;-68
2022/04/21 11:18:02;;;;;;;3.80;3.40;;;25.50;48.80;;;;;;4976185;28;20453;-66
2022/04/21 11:20:29;;;;;;;2.80;2.70;;;25.10;48.70;;;;;;4975482;28;20490;-67
2022/04/21 11:22:56;;;;;;;3.00;2.80;;;25.10;50.10;;;;;;4975219;28;20454;-68
2022/04/21 11:25:22;;;;;;;2.80;2.70;;;25.20;51.20;;;;;;4974952;28;20482;-68
2022/04/21 11:27:52;;;;;;;3.07;2.97;;;25.40;49.60;;;;;;4975386;28;20462;-67
2022/04/21 11:30:20;;;;;;;2.90;2.80;;;25.20;48.00;;;;;;4975196;28;20461;-67
2022/04/21 11:32:51;;;;;;;3.00;2.73;;;25.10;48.70;;;;;;4974699;28;20464;-68
2022/04/21 11:35:21;;;;;;;3.10;2.90;;;24.60;50.40;;;;;;4975075;28;20854;-67
2022/04/21 11:37:50;;;;;;;3.53;3.10;;;24.30;49.50;;;;;;4974890;28;20993;-68
2022/04/21 11:40:21;;;;;;;3.27;3.17;;;23.40;51.00;;;;;;4975001;28;20993;-67
2022/04/21 11:42:49;;;;;;;3.30;3.10;;;23.10;51.60;;;;;;4984722;28;20461;-67
2022/04/21 11:45:20;;;;;;;4.60;2.50;;;22.70;51.60;;;;;;4989450;28;20495;-67
2022/04/21 11:47:47;;;;;;;3.80;2.77;;;22.60;53.60;;;;;;4979714;28;20442;-67
2022/04/21 11:50:19;;;;;;;6.07;3.60;;;22.60;53.10;;;;;;4978980;28;20465;-68
2022/04/21 11:52:47;;;;;;;3.47;3.27;;;22.70;54.20;;;;;;4979008;28;20439;-66
2022/04/21 11:55:16;;;;;;;3.50;3.13;;;22.70;54.80;;;;;;4978480;28;20463;-66
2022/04/21 11:57:43;;;;;;;3.23;3.07;;;22.80;52.30;;;;;;4978288;28;20505;-67
2022/04/21 12:00:11;;;;;;;2.77;2.67;;;23.00;53.50;;;;;;4978184;28;20465;-67
2022/04/21 12:08:08;;;;;;;3.80;3.30;;;22.90;55.00;;;;;;4978261;28;20422;-67
2022/04/21 12:10:36;;;;;;;3.63;3.43;;;22.80;54.40;;;;;;4977831;28;20478;-67
2022/04/21 12:13:03;;;;;;;3.63;3.33;;;22.70;54.30;;;;;;4978763;28;20450;-67
2022/04/21 12:15:30;;;;;;;3.27;3.07;;;22.70;54.30;;;;;;4978210;28;20451;-67
2022/04/21 12:18:01;;;;;;;5.33;3.47;;;22.20;54.60;;;;;;4978123;28;20542;-68
2022/04/21 12:20:27;;;;;;;3.43;3.13;;;22.30;53.50;;;;;;4978109;28;20461;-67
2022/04/21 12:22:54;;;;;;;3.50;3.20;;;22.30;57.20;;;;;;4977855;28;20505;-67
2022/04/21 12:25:29;;;;;;;3.07;2.87;;;22.20;54.40;;;;;;4978445;28;20812;-67
2022/04/21 12:27:56;;;;;;;2.70;2.60;;;22.20;56.20;;;;;;4978288;28;20472;-67
2022/04/21 12:30:23;;;;;;;3.00;2.80;;;22.30;55.00;;;;;;4977859;28;20443;-65
2022/04/21 12:32:50;;;;;;;2.90;2.70;;;22.00;53.00;;;;;;4978287;28;20772;-67
2022/04/21 12:35:38;;;;;;;3.43;3.23;;;21.80;54.40;;;;;;4977901;28;20455;-67
2022/04/21 12:40:47;;;;;;;7.13;3.23;;;21.90;55.10;;;;;;4978208;28;20458;-67
2022/04/21 12:43:14;;;;;;;4.27;3.87;;;21.90;55.10;;;;;;4979538;28;20459;-66
2022/04/21 12:45:41;;;;;;;3.53;3.33;;;21.90;54.80;;;;;;4978084;28;20489;-67
2022/04/21 12:48:22;;;;;;;5.77;3.50;;;21.90;54.90;;;;;;4978213;28;20451;-66
2022/04/21 12:50:51;;;;;;;4.37;4.07;;;21.90;55.50;;;;;;4977837;28;20471;-68
2022/04/21 12:53:28;;;;;;;4.40;4.10;;;21.90;55.10;;;;;;4977693;28;20451;-66
2022/04/21 12:55:55;;;;;;;4.43;4.00;;;21.60;54.00;;;;;;4977574;28;20454;-66
2022/04/21 12:58:32;;;;;;;5.00;4.27;;;21.70;55.00;;;;;;4978114;28;20965;-66
2022/04/21 13:01:02;;;;;;;4.37;3.93;;;21.30;55.00;;;;;;4977835;28;20482;-67
2022/04/21 13:03:29;;;;;;;3.50;3.30;;;21.30;57.40;;;;;;4977638;28;20519;-66
2022/04/21 13:05:59;;;;;;;3.10;2.90;;;21.30;56.40;;;;;;4978109;28;20846;-67
2022/04/21 13:08:28;;;;;;;3.63;3.43;;;21.20;56.20;;;;;;4977710;28;20463;-66
2022/04/21 13:10:56;;;;;;;5.47;4.10;;;21.30;55.60;;;;;;4977391;28;20989;-66
2022/04/21 13:13:23;;;;;;;5.00;3.60;;;21.40;58.50;;;;;;4976592;28;20486;-65
2022/04/21 13:15:50;;;;;;;4.27;3.87;;;21.20;55.50;;;;;;4976794;28;20450;-66
2022/04/21 13:18:17;;;;;;;3.93;3.63;;;20.90;55.80;;;;;;4977343;28;20459;-66
2022/04/21 13:23:30;;;;;;;4.40;4.10;;;20.80;56.10;;;;;;4976663;28;20920;-66
2022/04/21 13:25:57;;;;;;;4.70;4.40;;;20.60;56.20;;;;;;4976606;28;20501;-66
2022/04/21 13:28:24;;;;;;;4.10;3.80;;;20.60;57.20;;;;;;4977541;28;20458;-66
2022/04/21 13:33:21;;;;;;;3.93;3.73;;;20.50;58.50;;;;;;4976760;28;20475;-66
2022/04/21 13:33:37;;;;;;;3.70;3.50;;;20.50;56.30;;;;;;4976683;28;20895;-66
2022/04/21 13:36:06;;;;;;;3.50;3.20;;;20.70;57.50;;;;;;4977520;28;20443;-64
2022/04/21 13:38:35;;;;;;;3.67;3.37;;;21.00;60.00;;;;;;4977819;28;20494;-64
2022/04/21 13:41:01;;;;;;;3.90;3.50;;;21.20;59.20;;;;;;4976499;28;20849;-64
2022/04/21 13:43:28;;;;;;;3.80;3.50;;;21.40;57.00;;;;;;4976746;28;20466;-64
2022/04/21 13:45:57;;;;;;;4.60;4.30;;;21.50;60.00;;;;;;4976618;28;20485;-64
2022/04/21 13:48:23;;;;;;;6.20;4.93;;;21.30;58.80;;;;;;4977403;28;20442;-64
2022/04/21 13:50:50;;;;;;;4.30;4.00;;;21.10;58.50;;;;;;4976070;28;20866;-64
2022/04/21 13:53:17;;;;;;;3.57;3.37;;;21.20;56.70;;;;;;4976484;28;20493;-64
2022/04/21 13:55:46;;;;;;;3.97;3.50;;;20.90;56.90;;;;;;4975692;28;20462;-64
2022/04/21 13:58:14;;;;;;;4.33;3.23;;;20.80;57.60;;;;;;4975584;28;20466;-64
2022/04/21 14:00:44;;;;;;;3.93;3.67;;;20.70;58.10;;;;;;4975178;28;20927;-64
2022/04/21 14:03:12;;;;;;;4.87;4.47;;;20.60;56.80;;;;;;4975728;28;20498;-66
2022/04/21 14:05:39;;;;;;;4.83;4.53;;;20.70;57.90;;;;;;4974833;28;20510;-66
2022/04/21 14:08:07;;;;;;;5.77;3.73;;;20.80;56.90;;;;;;4975609;28;20462;-66
2022/04/21 14:10:34;;;;;;;3.93;3.47;;;20.90;58.70;;;;;;4975470;28;20483;-66
2022/04/21 14:13:03;;;;;;;3.87;3.67;;;21.00;57.70;;;;;;4975322;28;20962;-67
2022/04/21 14:15:29;;;;;;;3.50;3.30;;;21.00;57.70;;;;;;4975421;28;20454;-67
2022/04/21 14:17:56;;;;;;;3.47;3.27;;;21.20;56.10;;;;;;4975180;28;20462;-66
2022/04/21 14:20:23;;;;;;;3.20;3.00;;;21.20;55.20;;;;;;4975101;28;20466;-67
2022/04/21 14:22:49;;;;;;;3.70;3.40;;;21.20;56.30;;;;;;4974919;28;20458;-66
2022/04/21 14:25:16;;;;;;;3.47;3.27;;;21.20;54.80;;;;;;4975229;28;20454;-66
2022/04/21 14:27:43;;;;;;;4.07;3.67;;;21.00;55.80;;;;;;4975321;28;20458;-66
2022/04/21 14:30:12;;;;;;;3.87;3.57;;;20.80;56.80;;;;;;4975070;28;20458;-67
2022/04/21 14:32:38;;;;;;;3.40;3.20;;;20.60;55.40;;;;;;4975219;28;20461;-66
2022/04/21 14:35:06;;;;;;;5.70;3.00;;;20.60;56.20;;;;;;4974938;28;20501;-66
2022/04/21 14:45:47;;;;;;;3.53;2.80;;;21.00;55.70;;;;;;4975446;28;20454;-66
2022/04/21 14:48:14;;;;;;;3.30;2.63;;;20.90;55.10;;;;;;4975045;28;20462;-67
2022/04/21 14:50:41;;;;;;;2.60;2.50;;;20.90;55.80;;;;;;4974898;28;20482;-66
2022/04/21 14:53:09;;;;;;;3.37;2.67;;;21.00;55.70;;;;;;4974907;28;20508;-66
2022/04/21 14:55:35;;;;;;;4.90;2.47;;;20.80;55.10;;;;;;4974966;28;20463;-66
2022/04/21 14:58:02;;;;;;;3.33;3.13;;;20.70;54.00;;;;;;4974812;28;20451;-66
2022/04/21 15:00:29;;;;;;;2.73;2.40;;;20.60;54.10;;;;;;4974571;28;20463;-66
2022/04/21 15:02:57;;;;;;;7.17;2.83;;;20.50;54.60;;;;;;4975555;28;20466;-66
2022/04/21 15:05:24;;;;;;;3.30;2.77;;;20.20;57.80;;;;;;4975493;28;20489;-66
2022/04/21 15:07:50;;;;;;;4.00;2.70;;;20.10;57.90;;;;;;4974951;28;20822;-66
2022/04/21 15:10:17;;;;;;;3.20;2.07;;;20.00;62.90;;;;;;4974978;28;20459;-67
2022/04/21 15:12:44;;;;;;;2.93;2.60;;;20.00;61.40;;;;;;4974946;28;20494;-65
2022/04/21 15:15:11;;;;;;;11.70;2.73;;;20.10;59.00;;;;;;4974919;28;20461;-66
2022/04/21 15:17:38;;;;;;;10.10;2.40;;;20.00;57.70;;;;;;4977106;28;20541;-66
2022/04/21 15:20:07;;;;;;;2.53;2.33;;;19.90;59.10;;;;;;4978243;28;20455;-65
2022/04/21 15:22:34;;;;;;;3.13;2.27;;;19.90;58.90;;;;;;4978409;28;20964;-66
2022/04/21 15:25:01;;;;;;;3.13;2.83;;;19.80;59.30;;;;;;5350460;23;20499;-67
2022/04/21 15:27:27;;;;;;;9.77;6.17;;;19.70;58.80;;;;;;4978919;28;20834;-68
2022/04/21 15:29:54;;;;;;;8.07;4.73;;;19.70;59.60;;;;;;4978967;28;20466;-67
2022/04/21 15:32:21;;;;;;;3.80;3.33;;;19.60;59.10;;;;;;4978950;28;20482;-68
2022/04/21 15:34:47;;;;;;;2.83;2.63;;;19.60;58.20;;;;;;4978413;28;20455;-67
2022/04/21 15:37:16;;;;;;;6.20;2.27;;;19.60;59.30;;;;;;4979289;28;20451;-67
2022/04/21 15:39:44;;;;;;;3.90;2.60;;;19.60;58.00;;;;;;4978625;28;20466;-68
2022/04/21 15:42:11;;;;;;;3.13;2.90;;;19.60;57.80;;;;;;4978615;28;20965;-66
2022/04/21 15:44:38;;;;;;;3.03;2.63;;;19.50;57.80;;;;;;4979206;28;20462;-65
2022/04/21 15:47:05;;;;;;;9.27;2.70;;;19.40;57.70;;;;;;4978469;28;20475;-65
2022/04/21 15:49:32;;;;;;;2.70;2.50;;;19.40;59.50;;;;;;4978649;28;20462;-65
2022/04/21 15:51:59;;;;;;;5.03;2.83;;;19.40;61.20;;;;;;4978845;28;20458;-64
2022/04/21 15:59:57;;;;;;;5.23;2.73;;;19.40;58.50;;;;;;4978754;28;20414;-65
2022/04/21 16:02:24;;;;;;;3.10;2.87;;;19.30;58.60;;;;;;4978669;28;20459;-65
2022/04/21 16:04:51;;;;;;;4.63;2.93;;;19.30;58.40;;;;;;4978264;28;20455;-64
2022/04/21 16:07:18;;;;;;;3.27;3.07;;;19.20;58.60;;;;;;4978246;28;20487;-64
2022/04/21 16:09:46;;;;;;;3.90;2.40;;;19.30;59.40;;;;;;4978199;28;20503;-65
2022/04/21 16:12:13;;;;;;;4.83;2.50;;;19.40;59.10;;;;;;4978258;28;20464;-64
2022/04/21 16:14:39;;;;;;;2.40;2.30;;;19.40;58.60;;;;;;4980562;28;20459;-65
2022/04/21 16:17:07;;;;;;;3.13;2.67;;;19.40;56.70;;;;;;4991353;28;20458;-66
2022/04/21 16:19:34;;;;;;;5.67;3.00;;;19.40;56.80;;;;;;4998081;28;20458;-67
2022/04/21 16:22:01;;;;;;;5.30;2.53;;;19.40;58.00;;;;;;4994349;28;20451;-67
2022/04/21 16:24:28;;;;;;;3.50;2.87;;;19.40;59.10;;;;;;4979069;28;20485;-66
2022/04/21 16:26:56;;;;;;;8.97;3.20;;;19.30;59.30;;;;;;4978081;28;20494;-66
2022/04/21 16:29:22;;;;;;;2.33;2.23;;;19.30;59.10;;;;;;4977217;28;20941;-65
2022/04/21 16:31:49;;;;;;;2.60;2.50;;;19.40;56.30;;;;;;4977459;28;20825;-66
2022/04/21 16:34:17;;;;;;;2.80;2.37;;;19.30;55.60;;;;;;4977863;28;20461;-65
2022/04/21 16:36:44;;;;;;;2.80;1.97;;;19.30;54.60;;;;;;4977900;28;20479;-66
2022/04/21 16:39:10;;;;;;;2.23;2.13;;;19.20;54.50;;;;;;4977659;28;20455;-65
2022/04/21 16:41:37;;;;;;;3.03;2.17;;;19.10;54.80;;;;;;4977532;28;20942;-66
2022/04/21 16:44:06;;;;;;;2.00;1.90;;;18.80;55.00;;;;;;4978619;28;20455;-65
2022/04/21 16:46:32;;;;;;;2.20;2.10;;;18.50;55.20;;;;;;4977633;28;20495;-65
2022/04/21 16:48:59;;;;;;;4.73;2.23;;;18.50;55.70;;;;;;4977629;28;20459;-65
2022/04/21 16:51:26;;;;;;;3.53;3.23;;;18.30;56.00;;;;;;4977744;28;20458;-65
2022/04/21 16:53:53;;;;;;;2.63;2.43;;;18.20;56.50;;;;;;4977407;28;20945;-65
2022/04/21 16:56:20;;;;;;;6.07;3.70;;;18.10;56.70;;;;;;4977804;28;20482;-65
2022/04/21 16:58:46;;;;;;;2.53;2.43;;;17.90;57.80;;;;;;4977623;28;20462;-65
2022/04/21 17:03:59;;;;;;;2.67;2.57;;;17.60;56.70;;;;;;4977557;28;20423;-64
2022/04/21 17:06:28;;;;;;;3.10;2.90;;;17.50;57.20;;;;;;4981373;28;20475;-63
2022/04/21 17:08:55;;;;;;;2.40;2.30;;;17.40;57.40;;;;;;4991720;28;20451;-67
2022/04/21 17:11:22;;;;;;;2.47;2.37;;;17.30;56.80;;;;;;4977997;28;20865;-67
2022/04/21 17:13:49;;;;;;;2.53;2.40;;;17.10;57.20;;;;;;4977417;28;20451;-68
2022/04/21 17:16:17;;;;;;;3.03;2.67;;;16.90;57.70;;;;;;4976896;28;20913;-65
2022/04/21 17:18:44;;;;;;;2.80;2.70;;;16.70;58.10;;;;;;4976970;28;20459;-65
2022/04/21 17:21:10;;;;;;;3.00;2.70;;;16.70;58.40;;;;;;4977186;28;20443;-66
2022/04/21 17:23:37;;;;;;;2.50;2.30;;;16.60;58.70;;;;;;4977899;28;20455;-64
2022/04/21 17:26:04;;;;;;;2.53;2.43;;;16.60;59.10;;;;;;4976976;28;20491;-64
2022/04/21 17:28:31;;;;;;;3.37;2.47;;;16.50;59.60;;;;;;4976677;28;20459;-65
2022/04/21 17:30:58;;;;;;;6.13;2.53;;;16.50;60.40;;;;;;4977190;28;20549;-64
2022/04/21 17:33:26;;;;;;;3.23;2.80;;;16.50;60.90;;;;;;4977119;28;20459;-66
2022/04/21 17:35:53;;;;;;;3.73;3.13;;;16.40;61.10;;;;;;4976687;28;20475;-66
2022/04/21 17:38:20;;;;;;;2.83;2.63;;;16.30;62.50;;;;;;4976448;28;20862;-67
2022/04/21 17:40:46;;;;;;;2.80;2.60;;;16.20;62.10;;;;;;4976012;28;20817;-66
2022/04/21 17:43:13;;;;;;;3.10;2.90;;;16.10;62.90;;;;;;4976574;28;20860;-67
2022/04/21 17:45:40;;;;;;;3.30;3.10;;;16.00;63.30;;;;;;4977536;28;20482;-67
2022/04/21 17:48:07;;;;;;;3.13;2.93;;;15.90;62.90;;;;;;4977696;28;20574;-66
2022/04/21 17:50:36;;;;;;;3.00;2.80;;;15.90;63.20;;;;;;4977548;28;20466;-66